sensor_id;sensor_type;location;lat;lon;timestamp;temperature;humidity
9544;DHT22;30418;51.45933468;7.33152330;2023-03-12T00:01:25;6.80;58.50
9544;DHT22;30418;51.45933468;7.33152330;2023-03-12T00:03:56;6.80;57.90
9544;DHT22;30418;51.45933468;7.33152330;2023-03-12T00:06:25;6.80;57.80
9544;DHT22;30418;51.45933468;7.33152330;2023-03-12T00:08:54;6.80;57.80
9544;DHT22;30418;51.45933468;7.33152330;2023-03-12T00:11:22;6.80;57.70
9544;DHT22;30418;51.45933468;7.33152330;2023-03-12T00:13:53;6.80;57.70
9544;DHT22;30418;51.45933468;7.33152330;2023-03-12T00:16:24;6.80;57.70
9544;DHT22;30418;51.45933468;7.33152330;2023-03-12T00:18:54;6.80;57.60
9544;DHT22;30418;51.45933468;7.33152330;2023-03-12T00:21:23;6.80;57.60
9544;DHT22;30418;51.45933468;7.33152330;2023-03-12T00:23:51;6.80;57.60
9544;DHT22;30418;51.45933468;7.33152330;2023-03-12T00:26:20;6.80;57.60
9544;DHT22;30418;51.45933468;7.33152330;2023-03-12T00:28:51;6.70;57.60
9544;DHT22;30418;51.45933468;7.33152330;2023-03-12T00:31:21;6.70;57.60
9544;DHT22;30418;51.45933468;7.33152330;2023-03-12T00:33:53;6.70;57.50
9544;DHT22;30418;51.45933468;7.33152330;2023-03-12T00:36:24;6.70;57.50
9544;DHT22;30418;51.45933468;7.33152330;2023-03-12T00:38:54;6.70;57.50
9544;DHT22;30418;51.45933468;7.33152330;2023-03-12T00:41:24;6.70;57.50
9544;DHT22;30418;51.45933468;7.33152330;2023-03-12T00:43:55;6.70;57.50
9544;DHT22;30418;51.45933468;7.33152330;2023-03-12T00:46:25;6.70;57.50
9544;DHT22;30418;51.45933468;7.33152330;2023-03-12T00:48:53;6.70;57.60
9544;DHT22;30418;51.45933468;7.33152330;2023-03-12T00:51:22;6.60;57.50
9544;DHT22;30418;51.45933468;7.33152330;2023-03-12T00:53:50;6.60;57.50
9544;DHT22;30418;51.45933468;7.33152330;2023-03-12T00:56:19;6.60;57.60
9544;DHT22;30418;51.45933468;7.33152330;2023-03-12T00:58:47;6.60;57.60
9544;DHT22;30418;51.45933468;7.33152330;2023-03-12T01:01:18;6.60;57.60
9544;DHT22;30418;51.45933468;7.33152330;2023-03-12T01:03:47;6.60;57.60
9544;DHT22;30418;51.45933468;7.33152330;2023-03-12T01:06:18;6.60;57.70
9544;DHT22;30418;51.45933468;7.33152330;2023-03-12T01:08:47;6.60;57.60
9544;DHT22;30418;51.45933468;7.33152330;2023-03-12T01:11:17;6.60;57.50
9544;DHT22;30418;51.45933468;7.33152330;2023-03-12T01:13:47;6.70;57.60
9544;DHT22;30418;51.45933468;7.33152330;2023-03-12T01:16:17;6.60;57.50
9544;DHT22;30418;51.45933468;7.33152330;2023-03-12T01:18:46;6.60;57.50
9544;DHT22;30418;51.45933468;7.33152330;2023-03-12T01:21:14;6.60;57.50
9544;DHT22;30418;51.45933468;7.33152330;2023-03-12T01:23:43;6.60;57.40
9544;DHT22;30418;51.45933468;7.33152330;2023-03-12T01:26:13;6.70;57.50
9544;DHT22;30418;51.45933468;7.33152330;2023-03-12T01:28:42;6.60;57.50
9544;DHT22;30418;51.45933468;7.33152330;2023-03-12T01:31:14;6.60;57.50
9544;DHT22;30418;51.45933468;7.33152330;2023-03-12T01:33:48;6.60;57.50
9544;DHT22;30418;51.45933468;7.33152330;2023-03-12T01:36:20;6.60;57.50
9544;DHT22;30418;51.45933468;7.33152330;2023-03-12T01:38:52;6.70;57.60
9544;DHT22;30418;51.45933468;7.33152330;2023-03-12T01:41:23;6.70;57.50
9544;DHT22;30418;51.45933468;7.33152330;2023-03-12T01:43:53;6.70;57.50
9544;DHT22;30418;51.45933468;7.33152330;2023-03-12T01:46:28;6.70;57.50
9544;DHT22;30418;51.45933468;7.33152330;2023-03-12T01:49:02;6.70;57.40
9544;DHT22;30418;51.45933468;7.33152330;2023-03-12T01:51:36;6.60;57.40
9544;DHT22;30418;51.45933468;7.33152330;2023-03-12T01:54:10;6.70;57.40
9544;DHT22;30418;51.45933468;7.33152330;2023-03-12T01:56:43;6.60;57.30
9544;DHT22;30418;51.45933468;7.33152330;2023-03-12T01:59:17;6.70;57.50
9544;DHT22;30418;51.45933468;7.33152330;2023-03-12T02:01:49;6.70;57.40
9544;DHT22;30418;51.45933468;7.33152330;2023-03-12T02:04:21;6.70;57.50
9544;DHT22;30418;51.45933468;7.33152330;2023-03-12T02:06:56;6.70;57.50
9544;DHT22;30418;51.45933468;7.33152330;2023-03-12T02:09:29;6.70;57.50
9544;DHT22;30418;51.45933468;7.33152330;2023-03-12T02:11:58;6.70;57.50
9544;DHT22;30418;51.45933468;7.33152330;2023-03-12T02:14:27;6.70;57.50
9544;DHT22;30418;51.45933468;7.33152330;2023-03-12T02:16:55;6.70;57.40
9544;DHT22;30418;51.45933468;7.33152330;2023-03-12T02:19:32;6.70;57.40
9544;DHT22;30418;51.45933468;7.33152330;2023-03-12T02:22:05;6.70;57.50
9544;DHT22;30418;51.45933468;7.33152330;2023-03-12T02:24:37;6.70;57.40
9544;DHT22;30418;51.45933468;7.33152330;2023-03-12T02:27:11;6.70;57.40
9544;DHT22;30418;51.45933468;7.33152330;2023-03-12T02:29:42;6.70;57.40
9544;DHT22;30418;51.45933468;7.33152330;2023-03-12T02:32:19;6.70;57.40
9544;DHT22;30418;51.45933468;7.33152330;2023-03-12T02:34:49;6.70;57.30
9544;DHT22;30418;51.45933468;7.33152330;2023-03-12T02:37:18;6.70;57.40
9544;DHT22;30418;51.45933468;7.33152330;2023-03-12T02:39:53;6.70;57.40
9544;DHT22;30418;51.45933468;7.33152330;2023-03-12T02:42:26;6.70;57.40
9544;DHT22;30418;51.45933468;7.33152330;2023-03-12T02:44:55;6.70;57.40
9544;DHT22;30418;51.45933468;7.33152330;2023-03-12T02:47:24;6.70;57.40
9544;DHT22;30418;51.45933468;7.33152330;2023-03-12T02:49:53;6.70;57.40
9544;DHT22;30418;51.45933468;7.33152330;2023-03-12T02:52:21;6.70;57.30
9544;DHT22;30418;51.45933468;7.33152330;2023-03-12T02:54:50;6.70;57.20
9544;DHT22;30418;51.45933468;7.33152330;2023-03-12T02:57:19;6.70;57.30
9544;DHT22;30418;51.45933468;7.33152330;2023-03-12T02:59:49;6.70;57.30
9544;DHT22;30418;51.45933468;7.33152330;2023-03-12T03:02:17;6.70;57.30
9544;DHT22;30418;51.45933468;7.33152330;2023-03-12T03:04:46;6.70;57.20
9544;DHT22;30418;51.45933468;7.33152330;2023-03-12T03:07:15;6.70;57.30
9544;DHT22;30418;51.45933468;7.33152330;2023-03-12T03:09:44;6.70;57.30
9544;DHT22;30418;51.45933468;7.33152330;2023-03-12T03:12:12;6.70;57.30
9544;DHT22;30418;51.45933468;7.33152330;2023-03-12T03:14:41;6.70;57.30
9544;DHT22;30418;51.45933468;7.33152330;2023-03-12T03:17:12;6.70;57.30
9544;DHT22;30418;51.45933468;7.33152330;2023-03-12T03:19:40;6.70;57.20
9544;DHT22;30418;51.45933468;7.33152330;2023-03-12T03:22:09;6.70;57.30
9544;DHT22;30418;51.45933468;7.33152330;2023-03-12T03:24:38;6.70;57.20
9544;DHT22;30418;51.45933468;7.33152330;2023-03-12T03:27:06;6.70;57.10
9544;DHT22;30418;51.45933468;7.33152330;2023-03-12T03:29:35;6.70;57.20
9544;DHT22;30418;51.45933468;7.33152330;2023-03-12T03:32:05;6.70;57.10
9544;DHT22;30418;51.45933468;7.33152330;2023-03-12T03:34:35;6.70;57.10
9544;DHT22;30418;51.45933468;7.33152330;2023-03-12T03:37:04;6.70;57.00
9544;DHT22;30418;51.45933468;7.33152330;2023-03-12T03:39:33;6.70;57.00
9544;DHT22;30418;51.45933468;7.33152330;2023-03-12T03:42:02;6.70;57.00
9544;DHT22;30418;51.45933468;7.33152330;2023-03-12T03:44:32;6.70;57.00
9544;DHT22;30418;51.45933468;7.33152330;2023-03-12T03:47:01;6.70;57.00
9544;DHT22;30418;51.45933468;7.33152330;2023-03-12T03:49:30;6.70;57.00
9544;DHT22;30418;51.45933468;7.33152330;2023-03-12T03:52:00;6.60;57.00
9544;DHT22;30418;51.45933468;7.33152330;2023-03-12T03:54:33;6.60;56.80
9544;DHT22;30418;51.45933468;7.33152330;2023-03-12T03:57:03;6.60;56.90
9544;DHT22;30418;51.45933468;7.33152330;2023-03-12T03:59:32;6.60;56.90
9544;DHT22;30418;51.45933468;7.33152330;2023-03-12T04:02:01;6.60;56.90
9544;DHT22;30418;51.45933468;7.33152330;2023-03-12T04:04:33;6.60;57.00
9544;DHT22;30418;51.45933468;7.33152330;2023-03-12T04:07:03;6.60;57.00
9544;DHT22;30418;51.45933468;7.33152330;2023-03-12T04:09:32;6.60;57.00
9544;DHT22;30418;51.45933468;7.33152330;2023-03-12T04:12:01;6.60;57.00
9544;DHT22;30418;51.45933468;7.33152330;2023-03-12T04:14:30;6.60;57.00
9544;DHT22;30418;51.45933468;7.33152330;2023-03-12T04:16:59;6.60;57.00
9544;DHT22;30418;51.45933468;7.33152330;2023-03-12T04:19:27;6.60;57.00
9544;DHT22;30418;51.45933468;7.33152330;2023-03-12T04:21:56;6.60;57.00
9544;DHT22;30418;51.45933468;7.33152330;2023-03-12T04:24:26;6.60;57.00
9544;DHT22;30418;51.45933468;7.33152330;2023-03-12T04:26:56;6.60;57.00
9544;DHT22;30418;51.45933468;7.33152330;2023-03-12T04:29:25;6.60;57.00
9544;DHT22;30418;51.45933468;7.33152330;2023-03-12T04:31:54;6.60;57.00
9544;DHT22;30418;51.45933468;7.33152330;2023-03-12T04:34:23;6.60;57.00
9544;DHT22;30418;51.45933468;7.33152330;2023-03-12T04:36:53;6.60;57.00
9544;DHT22;30418;51.45933468;7.33152330;2023-03-12T04:39:22;6.60;57.10
9544;DHT22;30418;51.45933468;7.33152330;2023-03-12T04:41:53;6.60;57.00
9544;DHT22;30418;51.45933468;7.33152330;2023-03-12T04:44:22;6.60;57.00
9544;DHT22;30418;51.45933468;7.33152330;2023-03-12T04:46:51;6.60;57.00
9544;DHT22;30418;51.45933468;7.33152330;2023-03-12T04:49:22;6.60;57.00
9544;DHT22;30418;51.45933468;7.33152330;2023-03-12T04:51:53;6.60;57.00
9544;DHT22;30418;51.45933468;7.33152330;2023-03-12T04:54:22;6.60;57.00
9544;DHT22;30418;51.45933468;7.33152330;2023-03-12T04:56:52;6.60;57.00
9544;DHT22;30418;51.45933468;7.33152330;2023-03-12T04:59:21;6.70;57.00
9544;DHT22;30418;51.45933468;7.33152330;2023-03-12T05:01:51;6.70;57.00
9544;DHT22;30418;51.45933468;7.33152330;2023-03-12T05:04:25;6.70;57.10
9544;DHT22;30418;51.45933468;7.33152330;2023-03-12T05:06:54;6.70;57.10
9544;DHT22;30418;51.45933468;7.33152330;2023-03-12T05:09:22;6.70;57.00
9544;DHT22;30418;51.45933468;7.33152330;2023-03-12T05:11:53;6.70;57.00
9544;DHT22;30418;51.45933468;7.33152330;2023-03-12T05:14:22;6.70;57.00
9544;DHT22;30418;51.45933468;7.33152330;2023-03-12T05:16:51;6.70;57.10
9544;DHT22;30418;51.45933468;7.33152330;2023-03-12T05:19:20;6.70;57.10
9544;DHT22;30418;51.45933468;7.33152330;2023-03-12T05:21:49;6.70;57.10
9544;DHT22;30418;51.45933468;7.33152330;2023-03-12T05:24:17;6.70;56.90
9544;DHT22;30418;51.45933468;7.33152330;2023-03-12T05:26:48;6.70;56.90
9544;DHT22;30418;51.45933468;7.33152330;2023-03-12T05:29:21;6.70;56.90
9544;DHT22;30418;51.45933468;7.33152330;2023-03-12T05:31:51;6.70;56.90
9544;DHT22;30418;51.45933468;7.33152330;2023-03-12T05:34:20;6.70;56.90
9544;DHT22;30418;51.45933468;7.33152330;2023-03-12T05:36:48;6.70;56.80
9544;DHT22;30418;51.45933468;7.33152330;2023-03-12T05:39:22;6.70;56.80
9544;DHT22;30418;51.45933468;7.33152330;2023-03-12T05:41:50;6.70;56.80
9544;DHT22;30418;51.45933468;7.33152330;2023-03-12T05:44:26;6.70;56.70
9544;DHT22;30418;51.45933468;7.33152330;2023-03-12T05:46:55;6.70;56.60
9544;DHT22;30418;51.45933468;7.33152330;2023-03-12T05:49:26;6.70;56.60
9544;DHT22;30418;51.45933468;7.33152330;2023-03-12T05:51:55;6.70;56.60
9544;DHT22;30418;51.45933468;7.33152330;2023-03-12T05:54:25;6.70;56.60
9544;DHT22;30418;51.45933468;7.33152330;2023-03-12T05:56:53;6.70;56.60
9544;DHT22;30418;51.45933468;7.33152330;2023-03-12T05:59:26;6.70;56.70
9544;DHT22;30418;51.45933468;7.33152330;2023-03-12T06:01:56;6.70;56.60
9544;DHT22;30418;51.45933468;7.33152330;2023-03-12T06:04:26;6.70;56.70
9544;DHT22;30418;51.45933468;7.33152330;2023-03-12T06:06:55;6.70;56.70
9544;DHT22;30418;51.45933468;7.33152330;2023-03-12T06:09:25;6.70;56.70
9544;DHT22;30418;51.45933468;7.33152330;2023-03-12T06:11:54;6.70;56.60
9544;DHT22;30418;51.45933468;7.33152330;2023-03-12T06:14:23;6.70;56.60
9544;DHT22;30418;51.45933468;7.33152330;2023-03-12T06:16:54;6.70;56.60
9544;DHT22;30418;51.45933468;7.33152330;2023-03-12T06:19:22;6.70;56.60
9544;DHT22;30418;51.45933468;7.33152330;2023-03-12T06:21:52;6.70;56.60
9544;DHT22;30418;51.45933468;7.33152330;2023-03-12T06:24:21;6.70;56.60
9544;DHT22;30418;51.45933468;7.33152330;2023-03-12T06:26:56;6.70;56.80
9544;DHT22;30418;51.45933468;7.33152330;2023-03-12T06:29:26;6.70;56.80
9544;DHT22;30418;51.45933468;7.33152330;2023-03-12T06:31:54;6.70;56.90
9544;DHT22;30418;51.45933468;7.33152330;2023-03-12T06:34:23;6.70;56.80
9544;DHT22;30418;51.45933468;7.33152330;2023-03-12T06:36:52;6.70;56.90
9544;DHT22;30418;51.45933468;7.33152330;2023-03-12T06:39:20;6.70;57.00
9544;DHT22;30418;51.45933468;7.33152330;2023-03-12T06:41:49;6.70;57.10
9544;DHT22;30418;51.45933468;7.33152330;2023-03-12T06:44:17;6.70;57.20
9544;DHT22;30418;51.45933468;7.33152330;2023-03-12T06:46:47;6.80;57.30
9544;DHT22;30418;51.45933468;7.33152330;2023-03-12T06:49:16;6.70;57.30
9544;DHT22;30418;51.45933468;7.33152330;2023-03-12T06:51:45;6.80;57.40
9544;DHT22;30418;51.45933468;7.33152330;2023-03-12T06:54:13;6.80;57.40
9544;DHT22;30418;51.45933468;7.33152330;2023-03-12T06:56:42;6.80;57.40
9544;DHT22;30418;51.45933468;7.33152330;2023-03-12T06:59:12;6.80;57.40
9544;DHT22;30418;51.45933468;7.33152330;2023-03-12T07:01:40;6.80;57.50
9544;DHT22;30418;51.45933468;7.33152330;2023-03-12T07:04:10;6.80;57.50
9544;DHT22;30418;51.45933468;7.33152330;2023-03-12T07:06:39;6.80;57.50
9544;DHT22;30418;51.45933468;7.33152330;2023-03-12T07:09:07;6.80;57.50
9544;DHT22;30418;51.45933468;7.33152330;2023-03-12T07:11:36;6.80;57.50
9544;DHT22;30418;51.45933468;7.33152330;2023-03-12T07:14:04;6.80;57.50
9544;DHT22;30418;51.45933468;7.33152330;2023-03-12T07:16:33;6.90;57.60
9544;DHT22;30418;51.45933468;7.33152330;2023-03-12T07:19:01;6.80;57.60
9544;DHT22;30418;51.45933468;7.33152330;2023-03-12T07:21:32;6.80;57.70
9544;DHT22;30418;51.45933468;7.33152330;2023-03-12T07:24:00;6.80;57.70
9544;DHT22;30418;51.45933468;7.33152330;2023-03-12T07:26:33;6.90;57.90
9544;DHT22;30418;51.45933468;7.33152330;2023-03-12T07:29:02;6.80;58.00
9544;DHT22;30418;51.45933468;7.33152330;2023-03-12T07:31:31;6.80;58.10
9544;DHT22;30418;51.45933468;7.33152330;2023-03-12T07:33:59;6.90;58.20
9544;DHT22;30418;51.45933468;7.33152330;2023-03-12T07:36:29;6.90;58.30
9544;DHT22;30418;51.45933468;7.33152330;2023-03-12T07:38:59;6.80;58.30
9544;DHT22;30418;51.45933468;7.33152330;2023-03-12T07:41:28;6.90;58.50
9544;DHT22;30418;51.45933468;7.33152330;2023-03-12T07:43:56;6.90;58.50
9544;DHT22;30418;51.45933468;7.33152330;2023-03-12T07:46:25;6.90;58.70
9544;DHT22;30418;51.45933468;7.33152330;2023-03-12T07:48:53;6.90;58.80
9544;DHT22;30418;51.45933468;7.33152330;2023-03-12T07:51:22;6.90;58.90
9544;DHT22;30418;51.45933468;7.33152330;2023-03-12T07:53:51;6.90;59.00
9544;DHT22;30418;51.45933468;7.33152330;2023-03-12T07:56:21;6.90;59.10
9544;DHT22;30418;51.45933468;7.33152330;2023-03-12T07:58:50;6.90;59.20
9544;DHT22;30418;51.45933468;7.33152330;2023-03-12T08:01:18;6.90;59.30
9544;DHT22;30418;51.45933468;7.33152330;2023-03-12T08:03:47;7.00;59.50
9544;DHT22;30418;51.45933468;7.33152330;2023-03-12T08:06:16;7.00;59.60
9544;DHT22;30418;51.45933468;7.33152330;2023-03-12T08:08:44;7.00;59.70
9544;DHT22;30418;51.45933468;7.33152330;2023-03-12T08:11:13;7.00;59.80
9544;DHT22;30418;51.45933468;7.33152330;2023-03-12T08:13:43;7.00;59.90
9544;DHT22;30418;51.45933468;7.33152330;2023-03-12T08:16:12;7.00;60.00
9544;DHT22;30418;51.45933468;7.33152330;2023-03-12T08:18:42;7.00;60.00
9544;DHT22;30418;51.45933468;7.33152330;2023-03-12T08:21:10;7.00;60.00
9544;DHT22;30418;51.45933468;7.33152330;2023-03-12T08:23:42;7.00;60.00
9544;DHT22;30418;51.45933468;7.33152330;2023-03-12T08:26:12;7.00;60.20
9544;DHT22;30418;51.45933468;7.33152330;2023-03-12T08:28:40;7.00;60.40
9544;DHT22;30418;51.45933468;7.33152330;2023-03-12T08:31:10;7.00;60.60
9544;DHT22;30418;51.45933468;7.33152330;2023-03-12T08:33:39;7.00;60.80
9544;DHT22;30418;51.45933468;7.33152330;2023-03-12T08:36:09;7.10;60.90
9544;DHT22;30418;51.45933468;7.33152330;2023-03-12T08:38:38;7.10;61.00
9544;DHT22;30418;51.45933468;7.33152330;2023-03-12T08:41:06;7.10;61.10
9544;DHT22;30418;51.45933468;7.33152330;2023-03-12T08:43:35;7.10;61.20
9544;DHT22;30418;51.45933468;7.33152330;2023-03-12T08:46:03;7.10;61.30
9544;DHT22;30418;51.45933468;7.33152330;2023-03-12T08:48:34;7.10;61.30
9544;DHT22;30418;51.45933468;7.33152330;2023-03-12T08:51:03;7.20;61.60
9544;DHT22;30418;51.45933468;7.33152330;2023-03-12T08:53:34;7.10;61.60
9544;DHT22;30418;51.45933468;7.33152330;2023-03-12T08:56:04;7.20;61.80
9544;DHT22;30418;51.45933468;7.33152330;2023-03-12T08:58:34;7.20;61.90
9544;DHT22;30418;51.45933468;7.33152330;2023-03-12T09:01:07;7.20;61.90
9544;DHT22;30418;51.45933468;7.33152330;2023-03-12T09:03:39;7.30;62.10
9544;DHT22;30418;51.45933468;7.33152330;2023-03-12T09:06:10;7.30;62.10
9544;DHT22;30418;51.45933468;7.33152330;2023-03-12T09:08:43;7.30;62.10
9544;DHT22;30418;51.45933468;7.33152330;2023-03-12T09:11:12;7.30;62.20
9544;DHT22;30418;51.45933468;7.33152330;2023-03-12T09:13:42;7.30;62.30
9544;DHT22;30418;51.45933468;7.33152330;2023-03-12T09:16:30;7.40;62.40
9544;DHT22;30418;51.45933468;7.33152330;2023-03-12T09:19:00;7.40;62.60
9544;DHT22;30418;51.45933468;7.33152330;2023-03-12T09:21:29;7.40;62.80
9544;DHT22;30418;51.45933468;7.33152330;2023-03-12T09:23:57;7.50;63.00
9544;DHT22;30418;51.45933468;7.33152330;2023-03-12T09:26:26;7.50;63.00
9544;DHT22;30418;51.45933468;7.33152330;2023-03-12T09:28:54;7.50;63.10
9544;DHT22;30418;51.45933468;7.33152330;2023-03-12T09:31:24;7.50;63.20
9544;DHT22;30418;51.45933468;7.33152330;2023-03-12T09:33:53;7.60;63.50
9544;DHT22;30418;51.45933468;7.33152330;2023-03-12T09:36:23;7.60;63.40
9544;DHT22;30418;51.45933468;7.33152330;2023-03-12T09:38:52;7.60;63.40
9544;DHT22;30418;51.45933468;7.33152330;2023-03-12T09:41:24;7.60;63.50
9544;DHT22;30418;51.45933468;7.33152330;2023-03-12T09:43:56;7.70;63.70
9544;DHT22;30418;51.45933468;7.33152330;2023-03-12T09:46:32;7.70;63.80
9544;DHT22;30418;51.45933468;7.33152330;2023-03-12T09:49:05;7.70;63.80
9544;DHT22;30418;51.45933468;7.33152330;2023-03-12T09:51:41;7.70;63.80
9544;DHT22;30418;51.45933468;7.33152330;2023-03-12T09:54:20;7.70;63.80
9544;DHT22;30418;51.45933468;7.33152330;2023-03-12T09:56:51;7.80;64.10
9544;DHT22;30418;51.45933468;7.33152330;2023-03-12T09:59:23;7.80;63.90
9544;DHT22;30418;51.45933468;7.33152330;2023-03-12T10:01:54;7.80;64.00
9544;DHT22;30418;51.45933468;7.33152330;2023-03-12T10:04:39;7.80;64.20
9544;DHT22;30418;51.45933468;7.33152330;2023-03-12T10:07:31;7.80;64.40
9544;DHT22;30418;51.45933468;7.33152330;2023-03-12T10:10:18;7.80;64.40
9544;DHT22;30418;51.45933468;7.33152330;2023-03-12T10:13:04;7.80;64.70
9544;DHT22;30418;51.45933468;7.33152330;2023-03-12T10:15:44;7.90;64.90
9544;DHT22;30418;51.45933468;7.33152330;2023-03-12T10:18:26;7.90;64.90
9544;DHT22;30418;51.45933468;7.33152330;2023-03-12T10:21:09;7.80;64.90
9544;DHT22;30418;51.45933468;7.33152330;2023-03-12T10:23:54;7.90;65.10
9544;DHT22;30418;51.45933468;7.33152330;2023-03-12T10:26:39;7.90;65.30
9544;DHT22;30418;51.45933468;7.33152330;2023-03-12T10:29:15;7.90;65.30
9544;DHT22;30418;51.45933468;7.33152330;2023-03-12T10:31:50;7.90;65.50
9544;DHT22;30418;51.45933468;7.33152330;2023-03-12T10:34:27;7.90;65.70
9544;DHT22;30418;51.45933468;7.33152330;2023-03-12T10:37:01;7.90;65.90
9544;DHT22;30418;51.45933468;7.33152330;2023-03-12T10:39:34;7.90;65.90
9544;DHT22;30418;51.45933468;7.33152330;2023-03-12T10:42:12;8.00;66.20
9544;DHT22;30418;51.45933468;7.33152330;2023-03-12T10:44:44;8.00;66.50
9544;DHT22;30418;51.45933468;7.33152330;2023-03-12T10:47:25;8.00;66.50
9544;DHT22;30418;51.45933468;7.33152330;2023-03-12T10:50:15;8.00;67.00
9544;DHT22;30418;51.45933468;7.33152330;2023-03-12T10:52:45;8.00;67.10
9544;DHT22;30418;51.45933468;7.33152330;2023-03-12T10:55:22;8.10;66.80
9544;DHT22;30418;51.45933468;7.33152330;2023-03-12T10:57:52;8.10;67.30
9544;DHT22;30418;51.45933468;7.33152330;2023-03-12T11:00:23;8.10;67.00
9544;DHT22;30418;51.45933468;7.33152330;2023-03-12T11:02:58;8.10;67.20
9544;DHT22;30418;51.45933468;7.33152330;2023-03-12T11:05:30;8.20;67.40
9544;DHT22;30418;51.45933468;7.33152330;2023-03-12T11:08:02;8.20;67.40
9544;DHT22;30418;51.45933468;7.33152330;2023-03-12T11:10:41;8.20;67.40
9544;DHT22;30418;51.45933468;7.33152330;2023-03-12T11:13:25;8.20;67.70
9544;DHT22;30418;51.45933468;7.33152330;2023-03-12T11:15:57;8.20;67.90
9544;DHT22;30418;51.45933468;7.33152330;2023-03-12T11:18:32;8.20;67.80
9544;DHT22;30418;51.45933468;7.33152330;2023-03-12T11:21:13;8.30;68.20
9544;DHT22;30418;51.45933468;7.33152330;2023-03-12T11:24:00;8.30;68.40
9544;DHT22;30418;51.45933468;7.33152330;2023-03-12T11:26:38;8.30;68.30
9544;DHT22;30418;51.45933468;7.33152330;2023-03-12T11:29:21;8.30;68.40
9544;DHT22;30418;51.45933468;7.33152330;2023-03-12T11:31:59;8.40;68.80
9544;DHT22;30418;51.45933468;7.33152330;2023-03-12T11:34:32;8.40;68.90
9544;DHT22;30418;51.45933468;7.33152330;2023-03-12T11:37:10;8.40;68.90
9544;DHT22;30418;51.45933468;7.33152330;2023-03-12T11:42:58;8.50;69.50
9544;DHT22;30418;51.45933468;7.33152330;2023-03-12T11:45:38;8.50;69.40
9544;DHT22;30418;51.45933468;7.33152330;2023-03-12T11:48:21;8.50;69.40
9544;DHT22;30418;51.45933468;7.33152330;2023-03-12T11:51:05;8.60;69.60
9544;DHT22;30418;51.45933468;7.33152330;2023-03-12T11:53:57;8.60;69.70
9544;DHT22;30418;51.45933468;7.33152330;2023-03-12T11:56:36;8.60;69.90
9544;DHT22;30418;51.45933468;7.33152330;2023-03-12T11:59:17;8.60;69.70
9544;DHT22;30418;51.45933468;7.33152330;2023-03-12T12:02:21;8.70;70.00
9544;DHT22;30418;51.45933468;7.33152330;2023-03-12T12:05:36;8.70;70.10
9544;DHT22;30418;51.45933468;7.33152330;2023-03-12T12:11:06;8.70;70.30
9544;DHT22;30418;51.45933468;7.33152330;2023-03-12T12:13:49;8.80;70.50
9544;DHT22;30418;51.45933468;7.33152330;2023-03-12T12:16:36;8.90;70.90
9544;DHT22;30418;51.45933468;7.33152330;2023-03-12T12:19:21;8.90;71.10
9544;DHT22;30418;51.45933468;7.33152330;2023-03-12T12:22:23;8.90;71.10
9544;DHT22;30418;51.45933468;7.33152330;2023-03-12T12:25:31;9.00;71.30
9544;DHT22;30418;51.45933468;7.33152330;2023-03-12T12:31:50;9.10;71.30
9544;DHT22;30418;51.45933468;7.33152330;2023-03-12T12:34:34;9.10;71.50
9544;DHT22;30418;51.45933468;7.33152330;2023-03-12T12:37:22;9.10;71.30
9544;DHT22;30418;51.45933468;7.33152330;2023-03-12T12:40:04;9.20;71.50
9544;DHT22;30418;51.45933468;7.33152330;2023-03-12T12:42:47;9.20;71.40
9544;DHT22;30418;51.45933468;7.33152330;2023-03-12T12:45:20;9.20;71.40
9544;DHT22;30418;51.45933468;7.33152330;2023-03-12T12:47:56;9.30;71.40
9544;DHT22;30418;51.45933468;7.33152330;2023-03-12T12:50:29;9.30;71.60
9544;DHT22;30418;51.45933468;7.33152330;2023-03-12T12:53:07;9.30;71.60
9544;DHT22;30418;51.45933468;7.33152330;2023-03-12T12:55:48;9.30;71.80
9544;DHT22;30418;51.45933468;7.33152330;2023-03-12T12:58:27;9.40;71.90
9544;DHT22;30418;51.45933468;7.33152330;2023-03-12T13:01:08;9.40;71.80
9544;DHT22;30418;51.45933468;7.33152330;2023-03-12T13:03:39;9.50;71.80
9544;DHT22;30418;51.45933468;7.33152330;2023-03-12T13:06:08;9.50;72.70
9544;DHT22;30418;51.45933468;7.33152330;2023-03-12T13:09:00;9.50;71.80
9544;DHT22;30418;51.45933468;7.33152330;2023-03-12T13:11:43;9.50;72.50
9544;DHT22;30418;51.45933468;7.33152330;2023-03-12T13:17:18;9.60;72.40
9544;DHT22;30418;51.45933468;7.33152330;2023-03-12T13:19:52;9.60;72.40
9544;DHT22;30418;51.45933468;7.33152330;2023-03-12T13:22:46;9.60;72.50
9544;DHT22;30418;51.45933468;7.33152330;2023-03-12T13:25:44;9.60;72.90
9544;DHT22;30418;51.45933468;7.33152330;2023-03-12T13:28:37;9.70;73.20
9544;DHT22;30418;51.45933468;7.33152330;2023-03-12T13:31:38;9.70;73.40
9544;DHT22;30418;51.45933468;7.33152330;2023-03-12T13:37:58;9.80;73.90
9544;DHT22;30418;51.45933468;7.33152330;2023-03-12T13:40:53;9.90;74.30
9544;DHT22;30418;51.45933468;7.33152330;2023-03-12T13:43:39;10.00;73.90
9544;DHT22;30418;51.45933468;7.33152330;2023-03-12T13:46:43;10.00;72.80
9544;DHT22;30418;51.45933468;7.33152330;2023-03-12T13:49:15;10.10;73.40
9544;DHT22;30418;51.45933468;7.33152330;2023-03-12T13:54:49;10.20;73.30
9544;DHT22;30418;51.45933468;7.33152330;2023-03-12T13:57:37;10.30;73.10
9544;DHT22;30418;51.45933468;7.33152330;2023-03-12T14:00:15;10.40;73.30
9544;DHT22;30418;51.45933468;7.33152330;2023-03-12T14:02:49;10.40;73.20
9544;DHT22;30418;51.45933468;7.33152330;2023-03-12T14:05:20;10.50;73.20
9544;DHT22;30418;51.45933468;7.33152330;2023-03-12T14:08:10;10.50;73.00
9544;DHT22;30418;51.45933468;7.33152330;2023-03-12T14:10:55;10.60;73.50
9544;DHT22;30418;51.45933468;7.33152330;2023-03-12T14:13:38;10.60;72.90
9544;DHT22;30418;51.45933468;7.33152330;2023-03-12T14:16:20;10.60;72.90
9544;DHT22;30418;51.45933468;7.33152330;2023-03-12T14:18:52;10.70;72.90
9544;DHT22;30418;51.45933468;7.33152330;2023-03-12T14:21:33;10.70;72.80
9544;DHT22;30418;51.45933468;7.33152330;2023-03-12T14:24:17;10.70;73.20
9544;DHT22;30418;51.45933468;7.33152330;2023-03-12T14:26:52;10.70;72.90
9544;DHT22;30418;51.45933468;7.33152330;2023-03-12T14:29:25;10.80;72.70
9544;DHT22;30418;51.45933468;7.33152330;2023-03-12T14:31:57;10.80;72.80
9544;DHT22;30418;51.45933468;7.33152330;2023-03-12T14:34:32;10.80;72.70
9544;DHT22;30418;51.45933468;7.33152330;2023-03-12T14:37:11;10.80;72.70